Time;durP1;ratioP1;P1;durP2;ratioP2;P2;SDS_P1;SDS_P2;PMS_P1;PMS_P2;Temp;Humidity;BMP_temperature;BMP_pressure;BME280_temperature;BME280_humidity;BME280_pressure;Samples;Min_cycle;Max_cycle;Signal;HPM_P1;HPM_P2
2022/04/18 00:00:05;;;;;;;4.15;1.52;;;;;;;;;;5050651;28;20151;-75
2022/04/18 00:02:31;;;;;;;2.33;1.67;;;;;;;;;;5050211;28;20029;-75
2022/04/18 00:04:56;;;;;;;2.38;1.83;;;;;;;;;;5049093;28;20040;-75
2022/04/18 00:07:21;;;;;;;2.60;1.60;;;;;;;;;;5050428;28;20024;-75
2022/04/18 00:09:47;;;;;;;2.55;1.73;;;;;;;;;;5050139;28;20025;-75
2022/04/18 00:12:12;;;;;;;2.30;1.95;;;;;;;;;;5050444;28;20036;-75
2022/04/18 00:14:37;;;;;;;2.03;1.63;;;;;;;;;;5050664;28;20021;-75
2022/04/18 00:17:03;;;;;;;2.65;1.55;;;;;;;;;;5050350;28;20025;-75
2022/04/18 00:19:28;;;;;;;1.70;1.50;;;;;;;;;;5048731;28;20605;-75
2022/04/18 00:21:54;;;;;;;2.15;1.60;;;;;;;;;;5050315;28;20070;-75
2022/04/18 00:24:21;;;;;;;1.50;1.40;;;;;;;;;;5050220;28;20469;-75
2022/04/18 00:26:47;;;;;;;2.25;1.70;;;;;;;;;;5050020;28;20029;-75
2022/04/18 00:29:13;;;;;;;3.03;1.80;;;;;;;;;;5049727;28;20025;-76
2022/04/18 00:31:38;;;;;;;3.38;1.67;;;;;;;;;;5050515;28;20028;-75
2022/04/18 00:34:04;;;;;;;2.53;1.70;;;;;;;;;;5050189;28;20033;-75
2022/04/18 00:36:30;;;;;;;2.22;1.73;;;;;;;;;;5049985;28;20391;-75
2022/04/18 00:38:55;;;;;;;2.80;1.83;;;;;;;;;;5049680;28;20164;-75
2022/04/18 00:41:20;;;;;;;2.08;1.70;;;;;;;;;;5049859;28;20445;-75
2022/04/18 00:43:48;;;;;;;3.05;1.90;;;;;;;;;;5048643;28;20486;-75
2022/04/18 00:46:15;;;;;;;3.00;1.70;;;;;;;;;;5048609;28;20120;-76
2022/04/18 00:48:41;;;;;;;3.25;1.67;;;;;;;;;;5049624;28;20024;-75
2022/04/18 00:51:19;;;;;;;2.55;1.92;;;;;;;;;;5049764;28;20032;-75
2022/04/18 00:53:44;;;;;;;3.17;1.63;;;;;;;;;;5049779;28;20025;-75
2022/04/18 00:56:13;;;;;;;1.95;1.80;;;;;;;;;;5049820;28;20486;-75
2022/04/18 00:58:41;;;;;;;2.03;1.70;;;;;;;;;;5049488;28;20029;-75
2022/04/18 01:01:06;;;;;;;3.30;1.85;;;;;;;;;;5049665;28;20571;-75
2022/04/18 01:03:31;;;;;;;2.40;1.80;;;;;;;;;;5049709;28;20115;-74
2022/04/18 01:05:59;;;;;;;3.30;2.00;;;;;;;;;;5048395;28;20025;-74
2022/04/18 01:08:25;;;;;;;7.07;3.17;;;;;;;;;;5051674;28;20091;-74
2022/04/18 01:10:51;;;;;;;2.85;1.90;;;;;;;;;;5053873;28;20032;-74
2022/04/18 01:13:17;;;;;;;3.28;2.10;;;;;;;;;;5053483;28;20028;-75
2022/04/18 01:15:42;;;;;;;2.85;2.10;;;;;;;;;;5053598;28;20466;-74
2022/04/18 01:18:08;;;;;;;2.45;2.00;;;;;;;;;;5053443;28;20078;-75
2022/04/18 01:20:34;;;;;;;4.03;2.00;;;;;;;;;;5053372;28;20453;-74
2022/04/18 01:23:00;;;;;;;2.10;1.67;;;;;;;;;;5053397;28;20111;-74
2022/04/18 01:30:54;;;;;;;3.35;2.33;;;;;;;;;;5054657;28;20108;-74
2022/04/18 01:33:19;;;;;;;2.83;1.90;;;;;;;;;;5052710;28;20029;-73
2022/04/18 01:35:44;;;;;;;3.65;2.58;;;;;;;;;;5053423;28;20475;-74
2022/04/18 01:38:10;;;;;;;3.53;2.13;;;;;;;;;;5053360;28;20113;-75
2022/04/18 01:40:35;;;;;;;3.17;2.30;;;;;;;;;;5051688;28;20036;-75
2022/04/18 01:43:01;;;;;;;2.78;2.00;;;;;;;;;;5053257;28;20021;-75
2022/04/18 01:45:26;;;;;;;2.63;2.10;;;;;;;;;;5053046;28;20025;-75
2022/04/18 01:47:52;;;;;;;2.13;1.83;;;;;;;;;;5052929;28;20032;-76
2022/04/18 01:50:18;;;;;;;2.65;2.00;;;;;;;;;;5053243;28;20086;-75
2022/04/18 01:52:43;;;;;;;3.65;2.10;;;;;;;;;;5052912;28;20025;-75
2022/04/18 01:55:09;;;;;;;3.05;2.20;;;;;;;;;;5052687;28;20013;-75
2022/04/18 01:57:34;;;;;;;3.10;2.08;;;;;;;;;;5052793;28;20025;-75
2022/04/18 02:00:00;;;;;;;2.10;1.90;;;;;;;;;;5052454;28;20293;-75
2022/04/18 02:02:25;;;;;;;2.50;1.90;;;;;;;;;;5052788;28;20402;-75
2022/04/18 02:04:51;;;;;;;2.85;2.50;;;;;;;;;;5052481;28;20368;-75
2022/04/18 02:07:16;;;;;;;3.33;2.30;;;;;;;;;;5051320;28;20394;-75
2022/04/18 02:09:41;;;;;;;2.10;1.90;;;;;;;;;;5050799;28;20387;-76
2022/04/18 02:12:07;;;;;;;3.38;1.95;;;;;;;;;;5052547;28;20102;-75
2022/04/18 02:14:32;;;;;;;1.85;1.73;;;;;;;;;;5052497;28;20655;-75
2022/04/18 02:16:58;;;;;;;2.85;1.75;;;;;;;;;;5052434;28;20035;-75
2022/04/18 02:19:23;;;;;;;1.80;1.70;;;;;;;;;;5049375;28;20039;-75
2022/04/18 02:21:49;;;;;;;2.58;1.80;;;;;;;;;;5052886;28;20355;-75
2022/04/18 02:24:14;;;;;;;2.45;1.80;;;;;;;;;;5052203;28;20549;-76
2022/04/18 02:26:40;;;;;;;3.80;2.47;;;;;;;;;;5051031;28;20048;-75
2022/04/18 02:29:05;;;;;;;3.13;2.17;;;;;;;;;;5052238;28;20035;-74
2022/04/18 02:31:31;;;;;;;4.80;2.63;;;;;;;;;;5052261;28;20457;-76
2022/04/18 02:33:56;;;;;;;2.95;2.15;;;;;;;;;;5052147;28;20074;-75
2022/04/18 02:36:22;;;;;;;3.50;2.30;;;;;;;;;;5052366;28;20112;-75
2022/04/18 02:38:47;;;;;;;3.33;2.20;;;;;;;;;;5051892;28;20025;-75
2022/04/18 02:41:12;;;;;;;3.72;2.17;;;;;;;;;;5045683;22;20384;-71
2022/04/18 02:43:37;;;;;;;2.83;2.10;;;;;;;;;;5012316;28;20032;-70
2022/04/18 02:46:03;;;;;;;2.60;2.08;;;;;;;;;;5012284;28;20026;-72
2022/04/18 02:48:31;;;;;;;3.17;2.08;;;;;;;;;;5012085;28;20033;-70
2022/04/18 02:50:57;;;;;;;2.33;1.95;;;;;;;;;;5012187;28;20018;-71
2022/04/18 02:53:22;;;;;;;4.32;2.17;;;;;;;;;;5012113;28;20036;-71
2022/04/18 02:55:47;;;;;;;2.55;2.30;;;;;;;;;;5011981;28;20383;-71
2022/04/18 02:58:12;;;;;;;3.78;2.30;;;;;;;;;;5011893;28;20022;-71
2022/04/18 03:00:38;;;;;;;3.38;2.50;;;;;;;;;;5010579;28;20026;-71
2022/04/18 03:03:03;;;;;;;3.28;2.45;;;;;;;;;;5011877;28;20026;-70
2022/04/18 03:05:28;;;;;;;3.85;2.30;;;;;;;;;;5011674;28;20029;-71
2022/04/18 03:07:54;;;;;;;3.08;2.20;;;;;;;;;;5011617;28;20113;-72
2022/04/18 03:11:02;;;;;;;4.13;1.90;;;;;;;;;;5011520;28;20092;-72
2022/04/18 03:13:05;;;;;;;2.90;2.30;;;;;;;;;;5011632;28;20160;-70
2022/04/18 03:15:30;;;;;;;2.28;1.98;;;;;;;;;;5011608;28;20109;-70
2022/04/18 03:17:56;;;;;;;3.20;2.25;;;;;;;;;;5011469;28;20029;-72
2022/04/18 03:20:21;;;;;;;2.88;2.22;;;;;;;;;;5011433;28;20025;-71
2022/04/18 03:22:46;;;;;;;2.33;2.05;;;;;;;;;;5011426;28;20018;-71
2022/04/18 03:25:11;;;;;;;4.10;2.35;;;;;;;;;;5010125;28;20026;-70
2022/04/18 03:27:37;;;;;;;2.05;1.85;;;;;;;;;;5011471;28;20395;-72
2022/04/18 03:30:02;;;;;;;3.38;2.30;;;;;;;;;;5011151;28;20058;-72
2022/04/18 03:32:28;;;;;;;3.40;2.40;;;;;;;;;;5011449;28;20036;-71
2022/04/18 03:34:53;;;;;;;3.35;2.30;;;;;;;;;;5011666;28;20026;-72
2022/04/18 03:40:02;;;;;;;2.65;2.25;;;;;;;;;;5011239;28;20080;-71
2022/04/18 03:42:32;;;;;;;3.42;2.38;;;;;;;;;;5011322;28;20487;-71
2022/04/18 03:45:05;;;;;;;2.75;2.42;;;;;;;;;;5011098;28;20040;-70
2022/04/18 03:47:30;;;;;;;3.28;2.50;;;;;;;;;;5011085;28;20172;-70
2022/04/18 03:49:57;;;;;;;2.25;2.05;;;;;;;;;;5010690;28;20396;-70
2022/04/18 03:52:23;;;;;;;2.78;2.00;;;;;;;;;;5009789;28;20057;-71
2022/04/18 03:54:48;;;;;;;3.88;2.25;;;;;;;;;;5010987;28;20030;-72
2022/04/18 03:57:14;;;;;;;2.63;2.20;;;;;;;;;;5011107;28;20091;-70
2022/04/18 03:59:40;;;;;;;4.25;2.33;;;;;;;;;;5010558;28;20079;-70
2022/04/18 04:02:06;;;;;;;3.38;2.58;;;;;;;;;;5010751;28;20032;-70
2022/04/18 04:04:32;;;;;;;3.65;2.13;;;;;;;;;;5010796;28;20106;-71
2022/04/18 04:06:58;;;;;;;2.35;2.15;;;;;;;;;;5010741;28;20436;-71
2022/04/18 04:09:23;;;;;;;2.95;1.88;;;;;;;;;;5010807;28;20108;-70
2022/04/18 04:11:48;;;;;;;2.88;2.28;;;;;;;;;;5010661;28;20479;-71
2022/04/18 04:14:13;;;;;;;2.47;2.22;;;;;;;;;;5010803;28;20102;-71
2022/04/18 04:16:39;;;;;;;3.53;2.28;;;;;;;;;;5010448;28;20361;-72
2022/04/18 04:19:06;;;;;;;2.90;2.17;;;;;;;;;;5010444;28;20038;-71
2022/04/18 04:21:32;;;;;;;3.63;2.30;;;;;;;;;;5009157;28;20038;-71
2022/04/18 04:23:57;;;;;;;2.75;2.40;;;;;;;;;;5010641;28;20026;-71
2022/04/18 04:26:22;;;;;;;2.70;2.30;;;;;;;;;;5010801;28;20174;-73
2022/04/18 04:28:48;;;;;;;2.90;2.47;;;;;;;;;;5010503;28;20053;-70
2022/04/18 04:31:13;;;;;;;3.25;2.28;;;;;;;;;;5010511;28;20037;-71
2022/04/18 04:33:38;;;;;;;2.97;2.10;;;;;;;;;;5010531;28;20068;-71
2022/04/18 04:36:04;;;;;;;2.65;2.20;;;;;;;;;;5010387;28;20026;-70
2022/04/18 04:38:29;;;;;;;4.25;2.28;;;;;;;;;;5010459;28;20096;-72
2022/04/18 04:40:57;;;;;;;2.28;1.83;;;;;;;;;;5010193;28;20037;-71
2022/04/18 04:43:28;;;;;;;2.65;1.73;;;;;;;;;;5009608;28;20092;-71
2022/04/18 04:45:54;;;;;;;4.40;2.15;;;;;;;;;;5010054;28;20053;-72
2022/04/18 04:48:19;;;;;;;2.55;2.10;;;;;;;;;;5010063;28;20057;-71
2022/04/18 04:50:44;;;;;;;3.53;2.17;;;;;;;;;;5010147;28;20048;-71
2022/04/18 04:53:10;;;;;;;3.50;2.55;;;;;;;;;;5010187;28;20088;-71
2022/04/18 04:55:36;;;;;;;3.75;2.40;;;;;;;;;;5010161;28;20050;-71
2022/04/18 04:58:02;;;;;;;3.47;2.30;;;;;;;;;;5010091;28;20113;-73
2022/04/18 05:00:27;;;;;;;2.63;2.30;;;;;;;;;;5009951;28;20026;-71
2022/04/18 05:02:56;;;;;;;3.38;2.30;;;;;;;;;;5010201;28;20030;-71
2022/04/18 05:05:22;;;;;;;4.32;2.22;;;;;;;;;;5010132;28;20387;-72
2022/04/18 05:07:47;;;;;;;3.22;2.38;;;;;;;;;;5010381;28;20026;-71
2022/04/18 05:10:12;;;;;;;3.53;2.70;;;;;;;;;;5013081;28;20446;-70
2022/04/18 05:12:37;;;;;;;7.47;3.00;;;;;;;;;;5019832;28;20029;-70
2022/04/18 05:15:04;;;;;;;3.30;2.50;;;;;;;;;;5015148;28;20014;-71
2022/04/18 05:17:30;;;;;;;3.22;2.60;;;;;;;;;;5010119;28;20041;-70
2022/04/18 05:19:55;;;;;;;3.88;2.42;;;;;;;;;;5009891;28;20018;-71
2022/04/18 05:22:20;;;;;;;3.17;2.40;;;;;;;;;;5010019;28;20060;-72
2022/04/18 05:24:46;;;;;;;3.10;2.42;;;;;;;;;;5010280;28;20116;-71
2022/04/18 05:27:15;;;;;;;3.90;2.65;;;;;;;;;;5010215;28;20094;-71
2022/04/18 05:29:43;;;;;;;2.88;2.30;;;;;;;;;;5009678;28;20029;-71
2022/04/18 05:32:09;;;;;;;3.95;2.28;;;;;;;;;;5009968;28;20398;-72
2022/04/18 05:34:34;;;;;;;2.63;2.42;;;;;;;;;;5009904;28;20021;-71
2022/04/18 05:37:00;;;;;;;3.78;2.20;;;;;;;;;;5006489;28;20029;-73
2022/04/18 05:39:26;;;;;;;3.85;2.45;;;;;;;;;;5004545;28;20118;-74
2022/04/18 05:41:51;;;;;;;3.60;2.47;;;;;;;;;;5007216;28;20022;-71
2022/04/18 05:44:16;;;;;;;5.05;2.30;;;;;;;;;;5009307;28;20419;-71
2022/04/18 05:46:42;;;;;;;4.50;2.65;;;;;;;;;;5009523;28;20399;-71
2022/04/18 05:49:07;;;;;;;2.72;2.28;;;;;;;;;;5009605;28;20022;-72
2022/04/18 05:51:33;;;;;;;4.88;2.65;;;;;;;;;;5009858;28;20368;-71
2022/04/18 05:54:00;;;;;;;4.22;2.65;;;;;;;;;;5010997;28;20026;-71
2022/04/18 05:56:25;;;;;;;4.03;2.60;;;;;;;;;;5014666;28;20033;-73
2022/04/18 05:58:51;;;;;;;3.67;2.40;;;;;;;;;;5029485;28;20029;-71
2022/04/18 06:01:16;;;;;;;2.75;2.35;;;;;;;;;;5032701;28;20029;-71
2022/04/18 06:03:41;;;;;;;4.88;2.38;;;;;;;;;;5027673;28;20039;-72
2022/04/18 06:06:07;;;;;;;3.47;2.35;;;;;;;;;;5018565;28;20022;-71
2022/04/18 06:08:32;;;;;;;3.47;2.33;;;;;;;;;;5009823;28;20026;-72
2022/04/18 06:10:58;;;;;;;3.65;2.40;;;;;;;;;;5009183;28;20040;-71
2022/04/18 06:13:24;;;;;;;3.55;2.33;;;;;;;;;;5022785;28;20272;-71
2022/04/18 06:15:52;;;;;;;2.28;2.08;;;;;;;;;;5030580;28;20467;-72
2022/04/18 06:18:18;;;;;;;2.70;2.30;;;;;;;;;;5032158;28;20074;-72
2022/04/18 06:20:43;;;;;;;3.42;2.15;;;;;;;;;;5032505;28;20029;-71
2022/04/18 06:23:08;;;;;;;3.92;2.53;;;;;;;;;;5031055;28;20029;-72
2022/04/18 06:25:33;;;;;;;2.83;2.05;;;;;;;;;;5032263;28;20044;-70
2022/04/18 06:27:59;;;;;;;2.38;2.10;;;;;;;;;;5031949;28;20115;-71
2022/04/18 06:30:25;;;;;;;2.45;2.08;;;;;;;;;;5032116;28;20025;-72
2022/04/18 06:32:50;;;;;;;2.67;2.10;;;;;;;;;;5032228;28;20036;-73
2022/04/18 06:35:15;;;;;;;3.83;2.40;;;;;;;;;;5032386;28;20041;-71
2022/04/18 06:37:41;;;;;;;3.05;2.40;;;;;;;;;;5032179;28;20025;-72
2022/04/18 06:40:06;;;;;;;3.72;2.85;;;;;;;;;;5031967;28;20036;-71
2022/04/18 06:42:38;;;;;;;2.83;2.03;;;;;;;;;;5032069;28;20056;-70
2022/04/18 06:45:04;;;;;;;3.70;2.10;;;;;;;;;;5032316;28;20030;-71
2022/04/18 06:47:29;;;;;;;2.45;2.15;;;;;;;;;;5031918;28;20045;-72
2022/04/18 06:49:54;;;;;;;3.72;2.50;;;;;;;;;;5031802;28;20025;-71
2022/04/18 06:52:22;;;;;;;2.65;2.30;;;;;;;;;;5031857;28;20105;-71
2022/04/18 06:54:47;;;;;;;4.18;2.13;;;;;;;;;;5031962;28;20029;-69
2022/04/18 06:57:12;;;;;;;2.63;2.00;;;;;;;;;;5031662;28;20030;-70
2022/04/18 06:59:38;;;;;;;4.05;2.30;;;;;;;;;;5031519;28;20105;-73
2022/04/18 07:02:03;;;;;;;3.88;2.33;;;;;;;;;;5031657;28;20036;-71
2022/04/18 07:04:29;;;;;;;4.43;2.30;;;;;;;;;;5030354;28;20032;-71
2022/04/18 07:06:54;;;;;;;2.33;1.90;;;;;;;;;;5030739;28;20541;-71
2022/04/18 07:09:19;;;;;;;2.80;2.08;;;;;;;;;;5031442;28;20059;-71
2022/04/18 07:11:45;;;;;;;2.65;1.90;;;;;;;;;;5031376;28;20025;-71
2022/04/18 07:14:14;;;;;;;3.08;2.20;;;;;;;;;;5031615;28;20091;-71
2022/04/18 07:16:41;;;;;;;3.88;2.28;;;;;;;;;;5031646;28;20072;-70
2022/04/18 07:19:07;;;;;;;2.85;2.10;;;;;;;;;;5031547;28;20026;-73
2022/04/18 07:21:32;;;;;;;3.95;2.00;;;;;;;;;;5031283;28;20101;-71
2022/04/18 07:23:57;;;;;;;2.72;1.83;;;;;;;;;;5031313;28;20025;-70
2022/04/18 07:26:23;;;;;;;2.85;1.70;;;;;;;;;;5031021;28;20029;-70
2022/04/18 07:28:49;;;;;;;2.42;1.83;;;;;;;;;;5030999;28;20025;-73
2022/04/18 07:31:14;;;;;;;2.60;2.10;;;;;;;;;;5031158;28;20033;-71
2022/04/18 07:33:40;;;;;;;2.40;1.90;;;;;;;;;;5031439;28;20439;-69
2022/04/18 07:36:05;;;;;;;3.45;2.20;;;;;;;;;;5031052;28;20063;-70
2022/04/18 07:38:50;;;;;;;3.53;2.20;;;;;;;;;;5030809;28;20033;-71
2022/04/18 07:41:23;;;;;;;2.47;1.98;;;;;;;;;;5030763;28;20586;-72
2022/04/18 07:43:49;;;;;;;2.13;1.85;;;;;;;;;;5030846;28;20075;-71
2022/04/18 07:46:15;;;;;;;2.83;2.10;;;;;;;;;;5031046;28;20026;-70
2022/04/18 07:48:41;;;;;;;3.22;1.90;;;;;;;;;;5030821;28;20029;-71
2022/04/18 07:53:51;;;;;;;4.03;2.55;;;;;;;;;;5030818;28;20079;-70
2022/04/18 07:56:16;;;;;;;3.33;2.05;;;;;;;;;;5029571;28;20021;-70
2022/04/18 07:58:42;;;;;;;3.08;1.70;;;;;;;;;;5030582;28;20673;-70
2022/04/18 08:01:07;;;;;;;1.65;1.55;;;;;;;;;;5029558;28;20064;-70
2022/04/18 08:03:34;;;;;;;2.90;1.85;;;;;;;;;;5030792;28;20029;-69
2022/04/18 08:06:00;;;;;;;2.83;1.75;;;;;;;;;;5029467;28;20037;-69
2022/04/18 08:08:25;;;;;;;2.83;1.80;;;;;;;;;;5030619;28;20423;-69
2022/04/18 08:10:50;;;;;;;3.50;1.60;;;;;;;;;;5030537;28;20032;-70
2022/04/18 08:13:16;;;;;;;2.10;1.85;;;;;;;;;;5030761;28;20104;-70
2022/04/18 08:15:41;;;;;;;2.10;1.90;;;;;;;;;;5030598;28;20021;-72
2022/04/18 08:18:06;;;;;;;2.35;1.90;;;;;;;;;;5028501;28;20398;-70
2022/04/18 08:20:33;;;;;;;2.40;1.75;;;;;;;;;;5030237;28;20462;-70
2022/04/18 08:22:58;;;;;;;1.73;1.60;;;;;;;;;;5030425;28;20375;-69
2022/04/18 08:25:24;;;;;;;2.78;1.80;;;;;;;;;;5030716;28;20025;-75
2022/04/18 08:27:50;;;;;;;2.35;2.00;;;;;;;;;;5031307;28;20105;-73
2022/04/18 08:30:15;;;;;;;2.58;1.75;;;;;;;;;;5031219;28;20029;-73
2022/04/18 08:32:41;;;;;;;2.55;1.80;;;;;;;;;;5031201;28;20084;-72
2022/04/18 08:35:08;;;;;;;1.98;1.77;;;;;;;;;;5031167;28;20059;-74
2022/04/18 08:37:34;;;;;;;2.03;1.52;;;;;;;;;;5031384;28;20426;-72
2022/04/18 08:40:01;;;;;;;2.42;1.58;;;;;;;;;;5031244;28;20028;-73
2022/04/18 08:42:32;;;;;;;2.10;1.70;;;;;;;;;;5031297;28;20550;-75
2022/04/18 08:44:58;;;;;;;3.35;1.83;;;;;;;;;;5031335;28;20028;-76
2022/04/18 08:52:53;;;;;;;2.45;1.70;;;;;;;;;;5031661;28;20041;-73
2022/04/18 08:55:19;;;;;;;1.90;1.55;;;;;;;;;;5031727;28;20025;-75
2022/04/18 08:57:44;;;;;;;1.85;1.35;;;;;;;;;;5031248;28;20479;-73
2022/04/18 09:00:12;;;;;;;2.13;1.67;;;;;;;;;;5030651;28;20029;-72
2022/04/18 09:02:38;;;;;;;1.90;1.70;;;;;;;;;;5031792;28;20286;-75
2022/04/18 09:05:04;;;;;;;3.25;1.83;;;;;;;;;;5030800;28;20025;-73
2022/04/18 09:07:29;;;;;;;3.22;2.00;;;;;;;;;;5021697;28;20032;-75
2022/04/18 09:09:55;;;;;;;1.90;1.70;;;;;;;;;;5020875;28;20032;-76
2022/04/18 09:12:22;;;;;;;2.20;1.70;;;;;;;;;;5023507;28;20510;-74
2022/04/18 09:14:48;;;;;;;2.13;1.88;;;;;;;;;;5031362;28;20487;-75
2022/04/18 09:17:31;;;;;;;2.72;2.00;;;;;;;;;;5030895;28;20020;-75
2022/04/18 09:20:10;;;;;;;2.05;1.80;;;;;;;;;;5030664;28;20036;-73
2022/04/18 09:22:43;;;;;;;3.00;2.10;;;;;;;;;;5030624;28;20095;-69
2022/04/18 09:25:15;;;;;;;3.20;2.10;;;;;;;;;;5029288;28;20044;-69
2022/04/18 09:27:41;;;;;;;2.92;1.80;;;;;;;;;;5023625;28;20317;-69
2022/04/18 09:30:09;;;;;;;2.92;2.03;;;;;;;;;;5032465;28;20057;-69
2022/04/18 09:32:34;;;;;;;2.03;1.70;;;;;;;;;;5033490;28;20048;-70
2022/04/18 09:35:02;;;;;;;2.90;2.00;;;;;;;;;;5033386;28;20395;-72
2022/04/18 09:37:31;;;;;;;2.38;1.90;;;;;;;;;;5033309;28;20021;-69
2022/04/18 09:39:56;;;;;;;2.20;2.00;;;;;;;;;;5032779;28;20037;-68
2022/04/18 09:42:26;;;;;;;2.28;1.70;;;;;;;;;;5033272;28;20506;-68
2022/04/18 09:44:52;;;;;;;3.28;2.28;;;;;;;;;;5033102;28;20043;-67
2022/04/18 09:47:19;;;;;;;2.22;1.70;;;;;;;;;;5033133;28;20022;-71
2022/04/18 09:49:45;;;;;;;1.70;1.45;;;;;;;;;;5032881;28;20021;-71
2022/04/18 09:52:16;;;;;;;2.33;1.45;;;;;;;;;;5033169;28;20422;-68
2022/04/18 09:54:51;;;;;;;2.00;1.80;;;;;;;;;;5033365;28;20028;-71
2022/04/18 09:57:23;;;;;;;1.60;1.45;;;;;;;;;;5033127;28;20025;-71
2022/04/18 09:59:50;;;;;;;2.22;1.50;;;;;;;;;;5032633;28;20037;-71
2022/04/18 10:02:16;;;;;;;1.58;1.42;;;;;;;;;;5033023;28;20056;-70
2022/04/18 10:04:42;;;;;;;2.17;1.35;;;;;;;;;;5033474;28;20060;-72
2022/04/18 10:07:08;;;;;;;2.47;1.40;;;;;;;;;;5033054;28;20483;-70
2022/04/18 10:09:33;;;;;;;2.25;1.50;;;;;;;;;;5032496;28;20025;-70
2022/04/18 10:11:59;;;;;;;1.60;1.50;;;;;;;;;;5032768;28;20116;-69
2022/04/18 10:14:24;;;;;;;1.70;1.50;;;;;;;;;;5032910;28;20261;-70
2022/04/18 10:16:51;;;;;;;3.40;1.40;;;;;;;;;;5032616;28;20541;-70
2022/04/18 10:19:50;;;;;;;1.90;1.67;;;;;;;;;;5032066;28;20076;-69
2022/04/18 10:22:37;;;;;;;2.30;1.50;;;;;;;;;;5032620;28;20104;-70
2022/04/18 10:25:21;;;;;;;1.52;1.38;;;;;;;;;;5032307;28;20022;-69
2022/04/18 10:28:14;;;;;;;1.48;1.38;;;;;;;;;;5032345;28;20560;-73
2022/04/18 10:31:01;;;;;;;1.65;1.38;;;;;;;;;;5032449;28;20108;-70
2022/04/18 10:33:27;;;;;;;1.75;1.35;;;;;;;;;;5032107;28;20494;-70
2022/04/18 10:35:56;;;;;;;1.92;1.33;;;;;;;;;;5026138;28;20025;-69
2022/04/18 10:38:25;;;;;;;1.60;1.20;;;;;;;;;;5032140;28;20137;-69
2022/04/18 10:40:51;;;;;;;6.97;1.50;;;;;;;;;;5030657;28;20060;-69
2022/04/18 10:43:16;;;;;;;2.35;1.50;;;;;;;;;;5032076;28;20064;-68
2022/04/18 10:45:41;;;;;;;2.33;1.60;;;;;;;;;;5031998;28;20456;-70
2022/04/18 10:48:09;;;;;;;2.35;1.70;;;;;;;;;;5031848;28;20376;-69
2022/04/18 10:50:37;;;;;;;1.50;1.38;;;;;;;;;;5031762;28;20033;-69
2022/04/18 10:53:24;;;;;;;1.73;1.45;;;;;;;;;;5031979;28;20033;-70
2022/04/18 10:55:52;;;;;;;2.17;1.40;;;;;;;;;;5031930;28;20024;-71
2022/04/18 10:58:25;;;;;;;2.17;1.50;;;;;;;;;;5032418;28;20061;-69
2022/04/18 11:00:53;;;;;;;2.70;1.63;;;;;;;;;;5031744;28;20049;-70
2022/04/18 11:03:37;;;;;;;2.47;1.67;;;;;;;;;;5031818;28;20022;-71
2022/04/18 11:06:10;;;;;;;2.00;1.58;;;;;;;;;;5031599;28;20121;-69
2022/04/18 11:08:38;;;;;;;2.95;1.58;;;;;;;;;;5031417;28;20037;-69
2022/04/18 11:11:17;;;;;;;1.98;1.52;;;;;;;;;;5031507;28;20448;-69
2022/04/18 11:13:43;;;;;;;2.05;1.38;;;;;;;;;;5031628;28;20193;-69
2022/04/18 11:16:23;;;;;;;1.60;1.30;;;;;;;;;;5031043;28;20434;-69
2022/04/18 11:19:08;;;;;;;2.53;1.45;;;;;;;;;;5031399;28;20037;-68
2022/04/18 11:21:54;;;;;;;1.67;1.40;;;;;;;;;;5021929;28;20053;-70
2022/04/18 11:24:38;;;;;;;1.73;1.63;;;;;;;;;;5016045;28;20108;-69
2022/04/18 11:27:08;;;;;;;1.98;1.35;;;;;;;;;;5018785;28;20033;-72
2022/04/18 11:29:34;;;;;;;3.25;1.95;;;;;;;;;;5022571;28;20078;-69
2022/04/18 11:32:00;;;;;;;2.05;1.55;;;;;;;;;;5025003;28;20033;-70
2022/04/18 11:34:27;;;;;;;1.50;1.33;;;;;;;;;;5026703;28;20037;-69
2022/04/18 11:36:58;;;;;;;3.08;1.40;;;;;;;;;;5015206;28;20355;-67
2022/04/18 11:39:23;;;;;;;2.28;1.42;;;;;;;;;;5020240;28;20438;-68
2022/04/18 11:41:48;;;;;;;2.28;1.58;;;;;;;;;;5020220;28;20356;-69
2022/04/18 11:44:18;;;;;;;2.80;1.60;;;;;;;;;;5024456;28;20024;-69
2022/04/18 11:46:44;;;;;;;2.85;1.63;;;;;;;;;;5015814;28;20029;-69
2022/04/18 11:49:09;;;;;;;2.63;1.60;;;;;;;;;;5024339;28;20479;-68
2022/04/18 11:51:42;;;;;;;2.22;1.67;;;;;;;;;;5030684;28;20506;-69
2022/04/18 11:54:07;;;;;;;2.28;1.70;;;;;;;;;;5030996;28;20498;-70
2022/04/18 11:56:33;;;;;;;1.77;1.45;;;;;;;;;;5030758;28;20056;-71
2022/04/18 11:59:04;;;;;;;2.65;1.50;;;;;;;;;;5030713;28;20075;-69
2022/04/18 12:07:00;;;;;;;3.83;1.50;;;;;;;;;;5030643;28;20032;-69
2022/04/18 12:09:26;;;;;;;2.85;1.63;;;;;;;;;;5030557;28;20034;-69
2022/04/18 12:11:51;;;;;;;1.70;1.60;;;;;;;;;;5030326;28;20040;-69
2022/04/18 12:14:18;;;;;;;2.28;1.65;;;;;;;;;;5030669;28;20021;-68
2022/04/18 12:16:44;;;;;;;1.50;1.40;;;;;;;;;;5030563;28;20426;-70
2022/04/18 12:19:15;;;;;;;1.98;1.60;;;;;;;;;;5028836;28;20116;-70
2022/04/18 12:21:42;;;;;;;1.52;1.30;;;;;;;;;;5030306;28;20025;-72
2022/04/18 12:24:08;;;;;;;2.15;1.40;;;;;;;;;;5028921;28;20029;-74
2022/04/18 12:26:34;;;;;;;1.77;1.52;;;;;;;;;;5029353;28;20027;-69
2022/04/18 12:29:00;;;;;;;2.83;1.30;;;;;;;;;;5029366;28;20510;-69
2022/04/18 12:31:26;;;;;;;1.20;1.10;;;;;;;;;;5030047;28;20032;-69
2022/04/18 12:33:52;;;;;;;2.75;1.90;;;;;;;;;;5030138;28;20442;-69
2022/04/18 12:36:30;;;;;;;2.75;1.30;;;;;;;;;;5029975;28;20071;-67
2022/04/18 12:38:56;;;;;;;2.10;1.48;;;;;;;;;;5029574;28;20031;-70
2022/04/18 12:41:34;;;;;;;1.88;1.50;;;;;;;;;;5029878;28;20033;-69
2022/04/18 12:44:00;;;;;;;2.03;1.20;;;;;;;;;;5030224;28;20029;-68
2022/04/18 12:46:29;;;;;;;2.05;1.25;;;;;;;;;;5030447;28;20036;-70
2022/04/18 12:48:55;;;;;;;1.52;1.27;;;;;;;;;;5030116;28;20107;-69
2022/04/18 12:51:31;;;;;;;2.42;1.50;;;;;;;;;;5029984;28;20403;-69
2022/04/18 12:53:56;;;;;;;2.85;1.20;;;;;;;;;;5030488;28;20100;-69
2022/04/18 12:56:24;;;;;;;2.00;1.75;;;;;;;;;;5029980;28;20518;-69
2022/04/18 12:59:01;;;;;;;3.03;1.90;;;;;;;;;;5029827;28;20052;-67
2022/04/18 13:01:32;;;;;;;4.97;3.45;;;;;;;;;;5029831;28;20040;-68
2022/04/18 13:03:58;;;;;;;2.65;1.42;;;;;;;;;;5030989;28;20025;-69
2022/04/18 13:06:29;;;;;;;2.78;1.60;;;;;;;;;;5033993;28;20395;-68
2022/04/18 13:09:03;;;;;;;1.95;1.30;;;;;;;;;;5033766;28;20052;-68
2022/04/18 13:11:42;;;;;;;1.90;1.40;;;;;;;;;;5033732;28;20057;-69
2022/04/18 13:14:10;;;;;;;3.28;1.25;;;;;;;;;;5034413;28;20052;-69
2022/04/18 13:16:35;;;;;;;2.35;1.38;;;;;;;;;;5033731;28;20033;-68
2022/04/18 13:19:11;;;;;;;1.90;1.27;;;;;;;;;;5033496;28;20419;-67
2022/04/18 13:21:37;;;;;;;1.42;1.30;;;;;;;;;;5033658;28;20030;-67
2022/04/18 13:24:04;;;;;;;1.50;1.30;;;;;;;;;;5033876;28;20049;-68
2022/04/18 13:26:31;;;;;;;2.95;1.38;;;;;;;;;;5033541;28;20432;-70
2022/04/18 13:28:57;;;;;;;1.77;1.25;;;;;;;;;;5033285;28;20417;-69
2022/04/18 13:31:23;;;;;;;3.83;1.42;;;;;;;;;;5033339;28;20037;-68
2022/04/18 13:33:49;;;;;;;2.20;1.42;;;;;;;;;;5034099;28;20045;-67
2022/04/18 13:39:06;;;;;;;1.35;1.15;;;;;;;;;;5034813;28;20399;-66
2022/04/18 13:41:32;;;;;;;2.60;1.50;;;;;;;;;;5033634;28;20037;-70
2022/04/18 13:43:58;;;;;;;1.27;1.10;;;;;;;;;;5033765;28;20030;-67
2022/04/18 13:46:23;;;;;;;1.73;1.20;;;;;;;;;;5033302;28;20029;-69
2022/04/18 13:48:50;;;;;;;2.75;1.58;;;;;;;;;;5031596;28;20495;-69
2022/04/18 13:51:20;;;;;;;1.27;1.17;;;;;;;;;;5033079;28;20072;-68
2022/04/18 13:53:47;;;;;;;3.28;1.60;;;;;;;;;;5033124;28;20127;-69
2022/04/18 13:56:12;;;;;;;1.98;1.50;;;;;;;;;;5032926;28;20028;-73
2022/04/18 13:58:38;;;;;;;1.88;1.30;;;;;;;;;;5032893;28;20018;-69
2022/04/18 14:01:04;;;;;;;2.08;1.38;;;;;;;;;;5032867;28;20080;-68
2022/04/18 14:03:30;;;;;;;1.77;1.45;;;;;;;;;;5032892;28;20033;-70
2022/04/18 14:05:57;;;;;;;2.90;1.40;;;;;;;;;;5032826;28;20026;-67
2022/04/18 14:08:23;;;;;;;1.65;1.15;;;;;;;;;;5032470;28;20021;-68
2022/04/18 14:10:49;;;;;;;2.63;1.30;;;;;;;;;;5032957;28;20025;-68
2022/04/18 14:13:14;;;;;;;1.58;1.20;;;;;;;;;;5032940;28;20032;-67
2022/04/18 14:21:08;;;;;;;2.28;1.30;;;;;;;;;;5032763;28;20067;-70
2022/04/18 14:23:33;;;;;;;1.33;1.20;;;;;;;;;;5032545;28;20493;-69
2022/04/18 14:25:58;;;;;;;1.65;1.50;;;;;;;;;;5032606;28;20531;-68
2022/04/18 14:28:23;;;;;;;1.33;1.20;;;;;;;;;;5032115;28;20482;-68
2022/04/18 14:30:49;;;;;;;1.88;1.23;;;;;;;;;;5032407;28;20032;-69
2022/04/18 14:33:15;;;;;;;1.65;1.38;;;;;;;;;;5032137;28;20021;-72
2022/04/18 14:35:40;;;;;;;3.95;1.67;;;;;;;;;;5032318;28;20022;-68
2022/04/18 14:38:06;;;;;;;1.67;1.20;;;;;;;;;;5032255;28;20072;-70
2022/04/18 14:40:31;;;;;;;1.70;1.20;;;;;;;;;;5053552;23;20072;-76
2022/04/18 14:42:56;;;;;;;2.97;1.08;;;;;;;;;;5032300;28;20021;-77
2022/04/18 14:45:22;;;;;;;2.38;1.40;;;;;;;;;;5032469;28;20024;-77
2022/04/18 14:47:47;;;;;;;2.15;1.40;;;;;;;;;;5031946;28;20387;-75
2022/04/18 14:50:12;;;;;;;1.73;1.30;;;;;;;;;;5030902;28;20025;-73
2022/04/18 14:52:38;;;;;;;1.63;1.42;;;;;;;;;;5032164;28;20080;-75
2022/04/18 14:55:03;;;;;;;1.67;1.40;;;;;;;;;;5030787;28;20038;-76
2022/04/18 14:57:29;;;;;;;1.60;1.23;;;;;;;;;;5031853;28;20035;-76
2022/04/18 14:59:54;;;;;;;2.63;1.35;;;;;;;;;;5031545;28;20104;-77
2022/04/18 15:02:21;;;;;;;1.40;1.30;;;;;;;;;;5031535;28;20078;-75
2022/04/18 15:04:47;;;;;;;2.15;1.30;;;;;;;;;;5032116;28;20036;-76
2022/04/18 15:07:13;;;;;;;1.65;1.20;;;;;;;;;;5031722;28;20021;-77
2022/04/18 15:09:38;;;;;;;1.60;1.10;;;;;;;;;;5030160;28;20032;-74
2022/04/18 15:12:08;;;;;;;2.50;1.40;;;;;;;;;;5029355;28;20049;-80